Time;durP1;ratioP1;P1;durP2;ratioP2;P2;SDS_P1;SDS_P2;PMS_P1;PMS_P2;Temp;Humidity;BMP_temperature;BMP_pressure;BME280_temperature;BME280_humidity;BME280_pressure;Samples;Min_cycle;Max_cycle;Signal;HPM_P1;HPM_P2
2020/12/23 00:02:18;;;;;;;26.15;13.22;;;;;;;3.69;50.12;101580.32;1774460;80;21229;-81
2020/12/23 00:04:46;;;;;;;23.12;15.35;;;;;;;3.80;50.20;101581.88;1795183;79;21177;-80
2020/12/23 00:07:15;;;;;;;30.65;17.00;;;;;;;3.93;50.05;101583.36;1774458;80;21634;-80
2020/12/23 00:09:44;;;;;;;16.45;9.80;;;;;;;3.99;49.92;101584.33;1795242;79;21699;-82
2020/12/23 00:12:12;;;;;;;24.20;13.95;;;;;;;3.98;49.89;101584.80;1774352;80;21189;-78
2020/12/23 00:14:41;;;;;;;24.70;15.10;;;;;;;3.93;49.86;101581.56;1795529;79;21172;-81
2020/12/23 00:17:09;;;;;;;27.45;16.15;;;;;;;3.86;49.96;101585.52;1774679;80;21173;-79
2020/12/23 00:19:37;;;;;;;32.35;16.48;;;;;;;3.80;49.97;101584.05;1795732;79;21649;-82
2020/12/23 00:22:05;;;;;;;27.73;16.15;;;;;;;3.73;50.03;101579.21;1795422;79;21082;-79
2020/12/23 00:24:34;;;;;;;34.83;15.70;;;;;;;3.61;50.18;101570.62;1774371;80;21412;-79
2020/12/23 00:27:01;;;;;;;32.48;17.62;;;;;;;3.54;50.34;101575.39;1795586;79;21208;-81
2020/12/23 00:29:30;;;;;;;33.92;18.42;;;;;;;3.45;50.58;101567.52;1774784;80;21181;-79
2020/12/23 00:31:57;;;;;;;35.08;18.00;;;;;;;3.43;50.70;101569.37;1795489;79;21631;-81
2020/12/23 00:34:25;;;;;;;29.70;15.75;;;;;;;3.45;50.75;101562.22;1774975;80;21580;-79
2020/12/23 00:36:55;;;;;;;35.78;16.85;;;;;;;3.44;50.81;101563.13;1795559;79;21137;-80
2020/12/23 00:39:23;;;;;;;29.95;15.45;;;;;;;3.42;50.88;101563.70;1818422;77;21168;-80
2020/12/23 00:41:51;;;;;;;21.55;13.00;;;;;;;3.43;51.07;101562.75;1845884;77;21125;-77
2020/12/23 00:44:19;;;;;;;22.90;13.08;;;;;;;3.47;50.64;101565.62;1846241;77;21369;-77
2020/12/23 00:46:47;;;;;;;21.02;11.60;;;;;;;3.52;50.31;101563.56;1845793;77;21153;-77
2020/12/23 00:49:15;;;;;;;19.73;11.12;;;;;;;3.53;50.28;101567.91;1774957;80;21158;-78
2020/12/23 00:51:43;;;;;;;20.25;11.73;;;;;;;3.56;50.11;101560.28;1795531;79;21124;-77
2020/12/23 00:54:11;;;;;;;18.85;10.25;;;;;;;3.61;50.04;101562.67;1774911;80;21546;-77
2020/12/23 00:56:41;;;;;;;21.93;13.05;;;;;;;3.63;49.97;101571.38;1795220;79;21384;-77
2020/12/23 00:59:09;;;;;;;20.70;11.45;;;;;;;3.65;49.85;101564.20;1774613;80;21165;-77
2020/12/23 01:01:37;;;;;;;24.02;14.07;;;;;;;3.72;49.77;101569.05;1795549;79;21149;-77
2020/12/23 01:04:05;;;;;;;16.77;10.00;;;;;;;3.81;49.78;101566.35;1774586;80;21185;-77
2020/12/23 01:06:34;;;;;;;14.45;8.58;;;;;;;3.88;49.43;101565.55;1795415;79;21204;-77
2020/12/23 01:09:03;;;;;;;20.15;10.98;;;;;;;3.81;49.44;101559.28;1774850;80;21198;-77
2020/12/23 01:11:30;;;;;;;21.87;11.68;;;;;;;3.79;49.40;101553.67;1795436;79;21172;-78
2020/12/23 01:13:58;;;;;;;17.60;9.78;;;;;;;3.78;49.23;101554.63;1774897;80;21170;-79
2020/12/23 01:16:26;;;;;;;22.05;11.55;;;;;;;3.74;49.07;101545.14;1795554;79;21124;-78
2020/12/23 01:18:54;;;;;;;18.32;9.88;;;;;;;3.74;49.17;101552.61;1774845;80;21416;-79
2020/12/23 01:21:23;;;;;;;14.23;8.65;;;;;;;3.78;49.10;101547.53;1795592;79;21263;-79
2020/12/23 01:23:51;;;;;;;14.68;7.75;;;;;;;3.78;48.83;101546.67;1795052;79;21228;-77
2020/12/23 01:26:19;;;;;;;17.55;9.05;;;;;;;3.67;48.75;101543.77;1794805;79;21572;-77
2020/12/23 01:28:47;;;;;;;19.48;9.48;;;;;;;3.54;48.79;101538.30;1794932;79;21185;-79
2020/12/23 01:31:14;;;;;;;13.55;7.67;;;;;;;3.43;49.03;101528.80;1774254;80;21189;-79
2020/12/23 01:33:42;;;;;;;17.10;9.25;;;;;;;3.42;49.21;101529.27;1795336;79;22739;-79
2020/12/23 01:36:11;;;;;;;21.77;11.10;;;;;;;3.36;49.35;101527.42;1794573;79;21211;-81
2020/12/23 01:38:40;;;;;;;20.92;11.28;;;;;;;3.23;49.68;101525.47;1778321;79;21196;-79
2020/12/23 01:41:07;;;;;;;20.92;11.83;;;;;;;3.08;50.09;101526.77;1780051;80;21193;-78
2020/12/23 01:43:35;;;;;;;17.40;9.25;;;;;;;2.99;50.41;101518.38;1784339;79;21591;-78
2020/12/23 01:46:03;;;;;;;24.20;12.70;;;;;;;3.02;50.56;101522.20;1795931;79;21330;-78
2020/12/23 01:48:31;;;;;;;22.70;11.70;;;;;;;3.04;50.60;101510.19;1795921;79;21160;-80
2020/12/23 01:51:02;;;;;;;22.27;11.00;;;;;;;3.10;50.52;101509.02;1795885;79;21188;-78
2020/12/23 01:53:31;;;;;;;21.02;11.48;;;;;;;3.14;50.50;101506.12;1795973;79;21137;-80
2020/12/23 01:56:00;;;;;;;19.27;10.53;;;;;;;3.18;50.35;101502.81;1785077;79;21176;-79
2020/12/23 01:58:28;;;;;;;21.73;10.72;;;;;;;3.22;50.31;101499.91;1784494;79;21267;-80
2020/12/23 02:00:56;;;;;;;17.95;9.33;;;;;;;3.23;50.30;101503.44;1764843;80;21165;-79
2020/12/23 02:03:24;;;;;;;19.73;9.35;;;;;;;3.25;50.26;101502.87;1802079;79;21420;-80
2020/12/23 02:05:52;;;;;;;23.32;11.22;;;;;;;3.28;50.11;101505.36;1721400;80;21165;-79
2020/12/23 02:08:20;;;;;;;24.82;12.95;;;;;;;3.23;50.03;101496.82;1799093;79;21174;-79
2020/12/23 02:10:50;;;;;;;21.23;11.10;;;;;;;3.22;50.04;101486.67;1772483;80;21599;-79
2020/12/23 02:13:41;;;;;;;19.57;10.53;;;;;;;3.25;50.03;101492.28;1785006;79;21208;-79
2020/12/23 02:16:09;;;;;;;18.95;10.05;;;;;;;3.32;49.96;101488.36;1764016;80;21165;-80
2020/12/23 02:18:37;;;;;;;19.42;9.35;;;;;;;3.33;50.02;101474.65;1785467;80;21195;-78
2020/12/23 02:21:07;;;;;;;18.23;9.70;;;;;;;3.31;50.09;101477.36;1769804;79;21163;-78
2020/12/23 02:23:35;;;;;;;17.82;9.70;;;;;;;3.32;50.11;101483.06;1799477;79;21904;-77
2020/12/23 02:26:03;;;;;;;24.25;11.28;;;;;;;3.32;50.22;101475.13;1805076;78;20981;-79
2020/12/23 02:28:30;;;;;;;20.23;10.58;;;;;;;3.35;50.16;101477.58;1770729;80;21205;-80
2020/12/23 02:31:01;;;;;;;25.08;12.65;;;;;;;3.34;50.22;101473.23;1764507;80;21217;-79
2020/12/23 02:33:29;;;;;;;18.42;9.78;;;;;;;3.31;50.31;101477.36;1749058;80;21149;-79
2020/12/23 02:35:57;;;;;;;22.90;13.08;;;;;;;3.31;50.31;101462.33;1772125;80;21197;-79
2020/12/23 02:38:25;;;;;;;22.42;10.43;;;;;;;3.30;50.39;101464.59;1764621;80;21434;-79
2020/12/23 02:40:55;;;;;;;24.37;12.20;;;;;;;3.28;50.46;101466.97;1785964;80;21217;-79
2020/12/23 02:43:23;;;;;;;20.80;10.93;;;;;;;3.19;50.58;101459.06;1769320;80;21185;-79
2020/12/23 02:45:51;;;;;;;25.68;13.50;;;;;;;3.20;50.64;101456.80;1783861;80;21169;-80
2020/12/23 02:48:18;;;;;;;22.82;12.40;;;;;;;3.25;50.70;101455.21;1753496;81;21811;-79
2020/12/23 02:50:46;;;;;;;26.15;12.45;;;;;;;3.30;50.73;101458.45;1773134;80;21181;-79
2020/12/23 02:53:15;;;;;;;19.80;9.60;;;;;;;3.33;50.73;101458.28;1785644;80;21173;-79
2020/12/23 02:55:43;;;;;;;17.60;9.65;;;;;;;3.32;50.82;101453.94;1788365;80;21213;-78
2020/12/23 02:58:10;;;;;;;20.20;10.38;;;;;;;3.34;50.92;101456.02;1788086;80;21595;-80
2020/12/23 03:00:39;;;;;;;18.02;10.28;;;;;;;3.38;50.93;101454.91;1782094;80;21170;-78
2020/12/23 03:03:06;;;;;;;20.85;9.50;;;;;;;3.37;50.87;101456.33;1777479;80;21158;-79
2020/12/23 03:05:34;;;;;;;18.45;9.85;;;;;;;3.34;50.99;101456.02;1784458;80;21154;-78
2020/12/23 03:08:02;;;;;;;19.80;10.40;;;;;;;3.29;51.15;101451.45;1783026;80;21219;-79
2020/12/23 03:10:30;;;;;;;18.67;11.00;;;;;;;3.32;51.28;101448.64;1776575;80;21643;-78
2020/12/23 03:12:58;;;;;;;17.55;10.25;;;;;;;3.38;51.31;101442.98;1802802;79;21470;-80
2020/12/23 03:15:25;;;;;;;15.23;8.53;;;;;;;3.46;51.20;101438.58;1812524;79;21500;-80
2020/12/23 03:17:53;;;;;;;14.47;8.55;;;;;;;3.45;51.04;101438.17;1795112;77;21184;-79
2020/12/23 03:20:21;;;;;;;14.33;6.97;;;;;;;3.43;51.02;101440.92;1792347;79;21170;-80
2020/12/23 03:22:49;;;;;;;12.40;7.60;;;;;;;3.45;50.88;101441.70;1786213;79;21149;-78
2020/12/23 03:25:17;;;;;;;13.75;8.10;;;;;;;3.43;50.84;101445.37;1771241;80;22696;-82
2020/12/23 03:27:44;;;;;;;11.22;7.00;;;;;;;3.40;50.78;101443.73;1759310;80;21177;-80
2020/12/23 03:30:12;;;;;;;15.08;9.00;;;;;;;3.43;50.63;101438.27;1778301;80;21216;-79
2020/12/23 03:32:40;;;;;;;10.32;6.40;;;;;;;3.41;50.73;101442.82;1778489;80;21684;-79
2020/12/23 03:35:10;;;;;;;14.73;9.18;;;;;;;3.44;50.70;101440.45;1776817;80;21595;-80
2020/12/23 03:37:38;;;;;;;10.18;5.60;;;;;;;3.48;50.61;101434.88;1771219;79;21157;-81
2020/12/23 03:40:06;;;;;;;15.10;9.83;;;;;;;3.52;50.49;101434.23;1787720;80;21193;-80
2020/12/23 03:42:34;;;;;;;14.55;8.65;;;;;;;3.49;50.61;101435.73;1764160;80;21201;-78
2020/12/23 03:45:02;;;;;;;22.77;12.60;;;;;;;3.47;50.53;101427.89;1781979;80;21194;-79
2020/12/23 03:47:30;;;;;;;14.15;9.30;;;;;;;3.49;50.62;101431.77;1785109;80;21196;-79
2020/12/23 03:49:58;;;;;;;12.20;7.62;;;;;;;3.58;50.54;101431.70;1792668;80;21619;-80
2020/12/23 03:52:26;;;;;;;11.78;7.50;;;;;;;3.66;50.35;101426.81;1792338;80;21215;-80
2020/12/23 03:54:54;;;;;;;14.38;8.15;;;;;;;3.65;50.35;101432.59;1792181;79;21185;-80
2020/12/23 03:57:22;;;;;;;13.75;7.78;;;;;;;3.65;50.34;101428.61;1792205;80;21209;-80
2020/12/23 03:59:49;;;;;;;13.65;7.97;;;;;;;3.68;50.34;101428.44;1792672;79;21212;-81
2020/12/23 04:02:17;;;;;;;12.93;8.55;;;;;;;3.64;50.25;101429.56;1792585;80;22635;-81
2020/12/23 04:04:45;;;;;;;13.48;8.23;;;;;;;3.54;50.39;101425.28;1792569;79;21172;-81
2020/12/23 04:07:13;;;;;;;14.23;9.08;;;;;;;3.51;50.63;101422.80;1793176;80;21153;-81
2020/12/23 04:09:42;;;;;;;15.30;8.23;;;;;;;3.49;50.79;101425.14;1793327;80;21192;-79
2020/12/23 04:12:10;;;;;;;14.43;8.48;;;;;;;3.45;51.01;101419.19;1793355;80;21156;-79
2020/12/23 04:14:39;;;;;;;14.25;8.53;;;;;;;3.47;51.03;101415.12;1793155;80;22721;-79
2020/12/23 04:17:06;;;;;;;12.95;8.33;;;;;;;3.47;51.03;101406.70;1793194;80;21189;-79
2020/12/23 04:19:34;;;;;;;10.03;6.85;;;;;;;3.45;51.15;101404.62;1793108;80;21112;-79
2020/12/23 04:22:02;;;;;;;13.95;7.87;;;;;;;3.53;51.19;101405.00;1793184;79;21192;-78
2020/12/23 04:24:30;;;;;;;10.43;7.10;;;;;;;3.60;51.14;101391.42;1792982;80;21156;-79
2020/12/23 04:26:58;;;;;;;10.28;7.22;;;;;;;3.65;51.08;101399.47;1793228;80;21357;-78
2020/12/23 04:29:27;;;;;;;10.32;7.85;;;;;;;3.60;51.20;101392.27;1792658;80;21218;-81
2020/12/23 04:31:55;;;;;;;8.15;5.55;;;;;;;3.54;51.40;101396.14;1792502;80;21196;-76
2020/12/23 04:34:23;;;;;;;13.35;7.35;;;;;;;3.52;51.51;101389.21;1792380;79;21192;-76
2020/12/23 04:36:52;;;;;;;9.13;6.33;;;;;;;3.51;51.57;101387.04;1792838;80;21228;-77
2020/12/23 04:39:19;;;;;;;11.88;7.60;;;;;;;3.50;51.69;101384.02;1792226;79;21602;-78
2020/12/23 04:41:47;;;;;;;8.05;4.97;;;;;;;3.54;51.74;101384.22;1791696;80;21536;-78
2020/12/23 04:44:15;;;;;;;13.48;8.88;;;;;;;3.62;51.76;101392.17;1792536;80;21161;-78
2020/12/23 04:46:43;;;;;;;14.55;8.63;;;;;;;3.61;51.69;101375.90;1761892;80;21171;-78
2020/12/23 04:49:11;;;;;;;14.28;8.98;;;;;;;3.66;51.63;101380.45;1790646;80;21141;-78
2020/12/23 04:51:39;;;;;;;15.78;9.98;;;;;;;3.65;51.64;101382.73;1761824;80;21220;-77
2020/12/23 04:54:08;;;;;;;13.32;9.08;;;;;;;3.64;51.63;101385.85;1761068;81;21192;-78
2020/12/23 04:56:36;;;;;;;12.85;8.18;;;;;;;3.66;51.69;101391.05;1761304;81;21596;-81
2020/12/23 04:59:04;;;;;;;12.50;8.33;;;;;;;3.68;51.65;101392.67;1761000;81;21180;-80
2020/12/23 05:01:32;;;;;;;14.83;9.05;;;;;;;3.69;51.56;101386.91;1760754;81;21666;-80
2020/12/23 05:04:00;;;;;;;16.95;9.80;;;;;;;3.65;51.57;101397.30;1760767;81;21200;-79
2020/12/23 05:06:28;;;;;;;14.98;9.93;;;;;;;3.60;51.69;101393.59;1761309;81;21185;-80
2020/12/23 05:08:57;;;;;;;16.15;9.95;;;;;;;3.55;51.86;101398.31;1762877;80;21208;-78
2020/12/23 05:11:24;;;;;;;15.18;9.90;;;;;;;3.54;51.97;101395.26;1773255;80;21192;-80
2020/12/23 05:13:53;;;;;;;16.93;10.58;;;;;;;3.58;51.92;101399.44;1760220;81;21057;-78
2020/12/23 05:16:23;;;;;;;18.02;11.43;;;;;;;3.58;51.96;101399.91;1763292;80;22620;-78
2020/12/23 05:18:56;;;;;;;13.55;8.03;;;;;;;3.60;51.92;101396.72;1824349;78;21205;-79
2020/12/23 05:21:26;;;;;;;18.87;9.48;;;;;;;3.64;51.88;101396.45;1812487;79;21564;-78
2020/12/23 05:23:55;;;;;;;13.18;9.25;;;;;;;3.66;51.70;101398.99;1795757;79;21194;-79
2020/12/23 05:26:25;;;;;;;20.45;12.00;;;;;;;3.70;51.70;101396.07;1782862;80;21105;-79
2020/12/23 05:28:53;;;;;;;20.88;12.95;;;;;;;3.75;51.65;101390.50;1765706;81;21553;-81
2020/12/23 05:31:21;;;;;;;12.37;7.90;;;;;;;3.82;51.54;101383.91;1765606;81;21162;-80
2020/12/23 05:33:49;;;;;;;18.27;10.80;;;;;;;3.88;51.35;101386.17;1782385;80;21150;-78
2020/12/23 05:36:19;;;;;;;13.13;9.00;;;;;;;3.83;51.34;101385.60;1751442;79;21172;-80
2020/12/23 05:38:47;;;;;;;16.57;9.58;;;;;;;3.81;51.38;101386.14;1784587;77;21765;-79
2020/12/23 05:41:15;;;;;;;18.52;10.60;;;;;;;3.80;51.43;101381.80;1797048;77;21811;-80
2020/12/23 05:43:43;;;;;;;18.17;11.78;;;;;;;3.79;51.29;101382.75;1801852;77;21179;-78
2020/12/23 05:46:12;;;;;;;16.27;10.28;;;;;;;3.73;51.31;101380.48;1801672;79;21613;-78
2020/12/23 05:48:41;;;;;;;16.75;10.25;;;;;;;3.68;51.45;101380.75;1777511;80;21209;-78
2020/12/23 05:51:09;;;;;;;18.00;10.30;;;;;;;3.65;51.47;101393.32;1783950;79;21197;-79
2020/12/23 05:53:39;;;;;;;18.92;11.57;;;;;;;3.61;51.55;101401.06;1794261;79;21432;-80
2020/12/23 05:56:08;;;;;;;19.17;12.43;;;;;;;3.59;51.64;101400.28;1774263;80;21679;-79
2020/12/23 05:58:37;;;;;;;16.30;10.28;;;;;;;3.56;51.74;101394.23;1776397;79;21112;-80
2020/12/23 06:01:08;;;;;;;22.73;13.98;;;;;;;3.63;51.76;101399.16;1765612;80;21142;-79
2020/12/23 06:03:52;;;;;;;24.98;15.13;;;;;;;3.64;51.74;101391.15;1809688;79;21086;-79
2020/12/23 06:06:25;;;;;;;22.27;12.95;;;;;;;3.66;51.80;101393.70;1792966;79;21350;-78
2020/12/23 06:08:55;;;;;;;22.50;14.53;;;;;;;3.71;51.70;101394.27;1789552;79;21133;-78
2020/12/23 06:11:36;;;;;;;19.30;12.78;;;;;;;3.67;51.70;101400.70;1772915;80;21643;-76
2020/12/23 06:14:23;;;;;;;32.83;17.27;;;;;;;3.65;51.76;101409.22;1730035;81;21447;-79
2020/12/23 06:17:04;;;;;;;25.13;14.33;;;;;;;3.67;51.82;101398.89;1774558;79;21544;-81
2020/12/23 06:19:39;;;;;;;27.80;16.37;;;;;;;3.66;51.71;101398.52;1777943;79;21191;-81
2020/12/23 06:22:08;;;;;;;16.20;9.90;;;;;;;3.68;51.67;101397.97;1772749;79;21133;-80
2020/12/23 06:24:37;;;;;;;18.37;11.83;;;;;;;3.72;51.48;101399.47;1780611;79;21386;-78
2020/12/23 06:27:06;;;;;;;18.32;11.80;;;;;;;3.63;51.38;101405.79;1775154;79;21299;-77
2020/12/23 06:29:43;;;;;;;15.05;9.88;;;;;;;3.60;51.56;101396.72;1768245;79;21414;-77
2020/12/23 06:32:22;;;;;;;21.52;12.58;;;;;;;3.63;51.53;101389.89;1775530;79;21319;-77
2020/12/23 06:35:01;;;;;;;21.77;11.68;;;;;;;3.63;51.58;101377.50;1781022;79;21009;-80
2020/12/23 06:37:32;;;;;;;20.30;12.90;;;;;;;3.68;51.58;101377.22;1774890;79;21474;-77
2020/12/23 06:40:08;;;;;;;25.17;13.43;;;;;;;3.61;51.51;101372.77;1782712;79;21512;-79
2020/12/23 06:42:36;;;;;;;33.18;17.32;;;;;;;3.51;51.68;101383.06;1756611;81;21852;-80
2020/12/23 06:45:08;;;;;;;51.10;21.42;;;;;;;3.40;51.90;101376.20;1773197;79;21335;-78
2020/12/23 06:47:37;;;;;;;61.02;29.95;;;;;;;3.40;52.12;101388.12;1776753;79;21097;-79
2020/12/23 06:50:27;;;;;;;52.55;22.73;;;;;;;3.39;52.17;101389.07;1783436;79;21132;-79
2020/12/23 06:52:55;;;;;;;57.53;29.70;;;;;;;3.43;52.28;101383.98;1774411;79;21476;-81
2020/12/23 06:55:48;;;;;;;48.05;25.00;;;;;;;3.49;52.15;101379.64;1784613;79;21108;-79
2020/12/23 06:58:42;;;;;;;55.35;28.52;;;;;;;3.48;52.12;101389.01;1745926;79;21367;-77
2020/12/23 07:01:19;;;;;;;29.12;16.82;;;;;;;3.44;52.16;101381.70;1777437;79;21495;-78
2020/12/23 07:03:48;;;;;;;;;;;;;;;3.47;52.28;101378.03;1781420;79;21101;-78
2020/12/23 07:06:29;;;;;;;29.00;16.25;;;;;;;3.59;52.25;101388.37;1778193;79;20314;-79
2020/12/23 07:09:04;;;;;;;25.82;15.55;;;;;;;3.63;52.05;101384.59;1781332;79;21596;-79
2020/12/23 07:11:37;;;;;;;24.27;15.32;;;;;;;3.70;51.95;101387.27;1777743;79;22380;-80
2020/12/23 07:14:06;;;;;;;30.17;15.83;;;;;;;3.77;51.88;101383.30;1786627;77;21888;-81
2020/12/23 07:16:41;;;;;;;25.15;14.87;;;;;;;3.87;51.77;101384.47;1795658;77;21658;-77
2020/12/23 07:19:09;;;;;;;20.48;12.18;;;;;;;3.93;51.60;101390.72;1794713;77;21185;-79
2020/12/23 07:21:40;;;;;;;27.62;14.90;;;;;;;4.00;51.50;101389.89;1711175;79;21196;-78
2020/12/23 07:24:10;;;;;;;32.93;16.62;;;;;;;4.03;51.31;101387.88;1764363;79;22846;-79
2020/12/23 07:26:40;;;;;;;27.85;15.65;;;;;;;4.07;51.32;101384.10;1724177;79;21196;-76
2020/12/23 07:29:09;;;;;;;27.20;16.67;;;;;;;4.14;51.32;101379.77;1779559;79;21189;-77
2020/12/23 07:31:47;;;;;;;24.02;13.28;;;;;;;4.23;51.12;101392.46;1794264;77;21088;-77
2020/12/23 07:34:15;;;;;;;;;;;;;;;4.23;50.85;101388.01;1769221;80;21097;-78
2020/12/23 07:36:43;;;;;;;17.05;10.80;;;;;;;4.12;50.87;101386.95;1768970;77;21365;-78
2020/12/23 07:39:12;;;;;;;17.55;10.13;;;;;;;4.03;51.09;101378.60;1775551;80;21170;-76
2020/12/23 07:41:40;;;;;;;19.65;10.45;;;;;;;3.97;51.19;101382.97;1766983;79;21117;-76
2020/12/23 07:44:11;;;;;;;20.35;11.57;;;;;;;3.87;51.38;101373.02;1773867;79;21144;-77
2020/12/23 07:46:44;;;;;;;22.58;13.68;;;;;;;3.84;51.49;101375.38;1778641;78;21117;-78
2020/12/23 07:49:33;;;;;;;18.80;10.70;;;;;;;3.85;51.59;101372.24;1777139;80;21385;-80
2020/12/23 07:52:05;;;;;;;19.80;11.18;;;;;;;3.85;51.70;101374.42;1781903;80;21114;-80
2020/12/23 07:54:39;;;;;;;14.90;10.13;;;;;;;3.87;51.76;101375.20;1781061;80;21085;-79
2020/12/23 07:57:08;;;;;;;17.67;10.65;;;;;;;3.86;51.68;101366.88;1777042;80;21167;-78
2020/12/23 07:59:37;;;;;;;17.80;11.33;;;;;;;3.83;51.66;101362.23;1789410;78;21093;-80
2020/12/23 08:02:08;;;;;;;17.40;10.95;;;;;;;3.73;51.82;101357.48;1779407;78;21117;-79
2020/12/23 08:04:39;;;;;;;17.48;10.32;;;;;;;3.71;51.90;101354.53;1751882;80;21121;-79
2020/12/23 08:07:09;;;;;;;14.87;9.93;;;;;;;3.67;52.01;101343.73;1739128;80;21791;-79
2020/12/23 08:09:39;;;;;;;17.02;10.78;;;;;;;3.72;52.04;101350.92;1766960;80;21126;-79
2020/12/23 08:12:07;;;;;;;15.40;9.78;;;;;;;3.70;52.02;101348.38;1767035;79;21086;-78
2020/12/23 08:14:35;;;;;;;18.00;10.50;;;;;;;3.71;52.08;101338.63;1801382;77;21184;-78
2020/12/23 08:17:03;;;;;;;22.90;13.05;;;;;;;3.67;52.09;101337.11;1799065;77;20973;-77
2020/12/23 08:19:35;;;;;;;22.55;12.65;;;;;;;3.71;52.20;101329.36;1795500;77;21112;-79
2020/12/23 08:22:11;;;;;;;19.60;12.05;;;;;;;3.76;52.19;101336.55;1799374;77;21100;-77
2020/12/23 08:24:41;;;;;;;19.35;11.97;;;;;;;3.76;52.07;101324.63;1795975;77;21116;-78
2020/12/23 08:27:09;;;;;;;19.60;10.98;;;;;;;3.73;52.17;101323.52;1774181;79;21212;-78
2020/12/23 08:29:39;;;;;;;21.00;12.13;;;;;;;3.68;52.33;101304.36;1774178;79;21136;-78
2020/12/23 08:32:19;;;;;;;24.47;14.35;;;;;;;3.69;52.36;101303.44;1792497;79;21081;-76
2020/12/23 08:34:57;;;;;;;26.12;12.33;;;;;;;3.67;52.56;101300.02;1735506;81;21668;-78
2020/12/23 08:37:28;;;;;;;22.55;12.78;;;;;;;3.69;52.57;101298.14;1797908;77;21066;-80
2020/12/23 08:39:58;;;;;;;27.48;15.90;;;;;;;3.68;52.54;101291.11;1795171;77;21488;-79
2020/12/23 08:42:26;;;;;;;28.07;13.58;;;;;;;3.70;52.66;101282.62;1772250;79;21447;-80
2020/12/23 08:45:06;;;;;;;28.02;15.98;;;;;;;3.75;52.55;101283.19;1767063;79;21110;-79
2020/12/23 08:47:55;;;;;;;19.98;11.90;;;;;;;3.76;52.57;101278.26;1796489;77;21891;-77
2020/12/23 08:50:43;;;;;;;20.85;12.18;;;;;;;3.78;52.55;101271.08;1731943;79;21113;-77
2020/12/23 08:53:14;;;;;;;18.52;10.98;;;;;;;3.85;52.54;101272.86;1734151;80;41834;-78
2020/12/23 08:55:46;;;;;;;23.20;14.05;;;;;;;3.89;52.37;101265.95;1740148;80;21188;-78
2020/12/23 08:58:17;;;;;;;21.27;11.60;;;;;;;3.91;52.41;101262.75;1769142;80;21660;-78
2020/12/23 09:01:00;;;;;;;17.02;10.80;;;;;;;3.96;52.37;101255.36;1776713;79;21120;-78
2020/12/23 09:03:30;;;;;;;17.70;10.75;;;;;;;4.04;52.26;101253.09;1795969;79;21114;-79
2020/12/23 09:05:59;;;;;;;18.42;11.33;;;;;;;4.03;52.12;101246.53;1802814;77;21360;-77
2020/12/23 09:08:27;;;;;;;20.92;11.28;;;;;;;4.01;52.22;101247.12;1793416;79;21522;-77
2020/12/23 09:10:59;;;;;;;17.77;11.18;;;;;;;3.97;52.32;101233.20;1798210;79;21094;-79
2020/12/23 09:13:33;;;;;;;23.25;12.33;;;;;;;3.95;52.36;101236.44;1769614;80;21149;-78
2020/12/23 09:16:04;;;;;;;19.55;13.32;;;;;;;3.95;52.38;101231.58;1768902;79;21562;-80
2020/12/23 09:18:33;;;;;;;17.27;10.40;;;;;;;3.96;52.44;101224.88;1769478;79;22104;-78
2020/12/23 09:21:07;;;;;;;14.95;9.18;;;;;;;4.01;52.45;101228.09;1780263;78;21117;-78
2020/12/23 09:23:40;;;;;;;21.35;12.15;;;;;;;4.09;52.48;101226.28;1783557;78;21109;-79
2020/12/23 09:26:15;;;;;;;27.50;14.90;;;;;;;4.16;52.29;101225.41;1768324;79;21595;-78
2020/12/23 09:28:43;;;;;;;31.33;16.77;;;;;;;4.12;52.17;101211.96;1773399;79;21557;-76
2020/12/23 09:31:11;;;;;;;22.45;11.35;;;;;;;4.11;52.26;101204.97;1767640;79;21372;-77
2020/12/23 09:33:40;;;;;;;27.73;14.58;;;;;;;4.12;52.32;101200.88;1725223;79;21232;-81
2020/12/23 09:36:09;;;;;;;24.92;14.43;;;;;;;4.17;52.13;101204.56;1780905;78;21967;-78
2020/12/23 09:38:37;;;;;;;22.37;14.55;;;;;;;4.17;52.10;101204.08;1782148;78;21093;-78
2020/12/23 09:41:06;;;;;;;25.80;15.60;;;;;;;4.17;52.13;101205.41;1785603;78;21128;-78
2020/12/23 09:43:35;;;;;;;26.12;15.83;;;;;;;4.20;52.07;101203.05;1767725;79;21382;-78
2020/12/23 09:46:06;;;;;;;26.97;14.68;;;;;;;4.24;52.03;101197.45;1776850;78;21183;-79
2020/12/23 09:48:35;;;;;;;25.48;15.65;;;;;;;4.27;51.87;101191.95;1776558;79;21134;-78
2020/12/23 09:51:03;;;;;;;25.32;13.48;;;;;;;4.25;51.78;101186.36;1781831;78;21121;-78
2020/12/23 09:53:33;;;;;;;24.23;15.65;;;;;;;4.18;51.95;101186.37;1781662;78;21639;-79
2020/12/23 09:56:04;;;;;;;21.80;13.62;;;;;;;4.16;51.98;101185.63;1780659;78;21184;-79
2020/12/23 09:58:33;;;;;;;28.38;15.23;;;;;;;4.22;52.06;101185.22;1743311;79;21612;-78
2020/12/23 10:01:00;;;;;;;26.42;16.27;;;;;;;4.29;51.85;101173.28;1785328;78;21113;-76
2020/12/23 10:03:28;;;;;;;34.25;18.30;;;;;;;4.33;51.81;101169.48;1773540;79;21087;-79
2020/12/23 10:05:56;;;;;;;28.27;17.15;;;;;;;4.38;51.77;101175.33;1765894;79;21102;-78
2020/12/23 10:08:25;;;;;;;28.80;16.23;;;;;;;4.46;51.81;101180.14;1771473;79;22538;-79
2020/12/23 10:10:53;;;;;;;22.52;14.20;;;;;;;4.53;51.58;101184.07;1763893;79;21154;-76
2020/12/23 10:13:22;;;;;;;26.02;15.58;;;;;;;4.55;51.51;101184.84;1765460;80;21126;-74
2020/12/23 10:15:50;;;;;;;23.77;13.95;;;;;;;4.60;51.51;101187.19;1772187;79;21106;-80
2020/12/23 10:18:17;;;;;;;20.85;13.45;;;;;;;4.67;51.23;101188.46;1778300;78;21087;-76
2020/12/23 10:20:45;;;;;;;19.60;11.70;;;;;;;4.69;51.07;101188.75;1770783;79;21372;-78
2020/12/23 10:23:13;;;;;;;18.65;11.00;;;;;;;4.68;50.90;101179.09;1766835;79;21668;-76
2020/12/23 10:25:41;;;;;;;20.25;11.80;;;;;;;4.65;50.92;101175.30;1758780;79;21106;-76
2020/12/23 10:28:09;;;;;;;22.13;12.60;;;;;;;4.64;51.00;101170.11;1765727;79;21107;-76
2020/12/23 10:30:37;;;;;;;22.60;14.70;;;;;;;4.63;51.12;101177.67;1761433;79;21857;-77
2020/12/23 10:33:07;;;;;;;20.43;12.37;;;;;;;4.61;51.16;101176.94;1766634;79;21396;-78
2020/12/23 10:35:35;;;;;;;22.60;14.33;;;;;;;4.66;51.32;101168.19;1764576;79;21169;-77
2020/12/23 10:38:03;;;;;;;23.95;14.85;;;;;;;4.77;51.29;101174.97;1768100;79;21120;-79
2020/12/23 10:40:33;;;;;;;21.87;13.13;;;;;;;4.84;51.07;101174.44;1769535;78;21122;-78
2020/12/23 10:43:02;;;;;;;20.97;13.25;;;;;;;4.89;50.97;101176.78;1799423;77;21119;-80
2020/12/23 10:45:30;;;;;;;20.57;11.57;;;;;;;4.89;50.77;101159.52;1769619;79;21994;-80
2020/12/23 10:47:58;;;;;;;18.90;12.10;;;;;;;4.86;50.68;101160.20;1772985;79;21137;-79
2020/12/23 10:50:26;;;;;;;25.30;14.05;;;;;;;4.74;50.68;101160.09;1799628;77;21098;-80
2020/12/23 10:52:53;;;;;;;21.20;13.48;;;;;;;4.66;50.79;101161.56;1799333;77;21124;-78
2020/12/23 10:55:21;;;;;;;18.10;12.60;;;;;;;4.64;50.99;101170.11;1795511;77;21122;-79
2020/12/23 10:57:50;;;;;;;18.82;12.00;;;;;;;4.61;50.95;101165.00;1781183;78;21378;-77
2020/12/23 11:00:17;;;;;;;19.55;12.13;;;;;;;4.51;51.10;101157.66;1780689;78;21594;-76
2020/12/23 11:02:45;;;;;;;25.17;13.10;;;;;;;4.45;51.25;101146.58;1800955;77;21148;-76
2020/12/23 11:05:16;;;;;;;20.35;12.47;;;;;;;4.41;51.44;101134.50;1770807;80;21113;-79
2020/12/23 11:07:43;;;;;;;20.77;14.18;;;;;;;4.44;51.52;101137.78;1800359;77;21152;-78
2020/12/23 11:10:13;;;;;;;20.62;12.37;;;;;;;4.46;51.51;101143.85;1799125;77;22217;-80
2020/12/23 11:12:41;;;;;;;20.15;12.85;;;;;;;4.46;51.56;101141.20;1778175;78;21144;-80
2020/12/23 11:15:09;;;;;;;21.87;13.03;;;;;;;4.45;51.61;101131.55;1780359;79;21133;-80
2020/12/23 11:17:37;;;;;;;26.73;15.65;;;;;;;4.46;51.77;101137.22;1769833;79;21379;-79
2020/12/23 11:20:05;;;;;;;23.60;14.43;;;;;;;4.48;51.84;101134.45;1769364;79;21113;-79
2020/12/23 11:22:33;;;;;;;22.98;14.93;;;;;;;4.51;51.88;101132.45;1792376;77;22278;-80
2020/12/23 11:25:05;;;;;;;15.85;9.88;;;;;;;4.53;51.91;101135.84;1763553;79;21659;-77
2020/12/23 11:27:33;;;;;;;28.30;16.27;;;;;;;4.55;51.90;101131.30;1767191;79;21147;-78
2020/12/23 11:30:05;;;;;;;18.32;11.85;;;;;;;4.56;51.85;101132.98;1766516;79;21108;-77
2020/12/23 11:32:33;;;;;;;24.32;14.00;;;;;;;4.55;51.74;101131.30;1769500;79;21098;-78